sensor_id;sensor_type;location;lat;lon;timestamp;P1;durP1;ratioP1;P2;durP2;ratioP2
70547;SDS011;58099;43.406;3.698;2022-12-18T00:00:46;13.87;;;6.80;;
70547;SDS011;58099;43.406;3.698;2022-12-18T00:03:12;12.57;;;5.88;;
70547;SDS011;58099;43.406;3.698;2022-12-18T00:05:49;10.52;;;5.65;;
70547;SDS011;58099;43.406;3.698;2022-12-18T00:08:15;11.60;;;5.68;;
70547;SDS011;58099;43.406;3.698;2022-12-18T00:10:42;11.63;;;5.82;;
70547;SDS011;58099;43.406;3.698;2022-12-18T00:13:08;11.67;;;5.63;;
70547;SDS011;58099;43.406;3.698;2022-12-18T00:15:34;13.70;;;5.95;;
70547;SDS011;58099;43.406;3.698;2022-12-18T00:18:00;11.93;;;5.53;;
70547;SDS011;58099;43.406;3.698;2022-12-18T00:20:26;10.83;;;5.73;;
70547;SDS011;58099;43.406;3.698;2022-12-18T00:22:52;12.38;;;5.93;;
70547;SDS011;58099;43.406;3.698;2022-12-18T06:58:52;6.32;;;2.55;;
70547;SDS011;58099;43.406;3.698;2022-12-18T07:01:17;5.55;;;2.13;;
70547;SDS011;58099;43.406;3.698;2022-12-18T07:03:43;6.17;;;2.03;;
70547;SDS011;58099;43.406;3.698;2022-12-18T07:06:16;7.75;;;2.60;;
70547;SDS011;58099;43.406;3.698;2022-12-18T07:08:43;6.22;;;2.40;;
70547;SDS011;58099;43.406;3.698;2022-12-18T07:11:10;8.07;;;2.13;;
70547;SDS011;58099;43.406;3.698;2022-12-18T07:13:36;6.43;;;2.80;;
70547;SDS011;58099;43.406;3.698;2022-12-18T07:16:05;7.50;;;2.80;;
70547;SDS011;58099;43.406;3.698;2022-12-18T07:18:33;6.82;;;3.13;;
70547;SDS011;58099;43.406;3.698;2022-12-18T07:21:02;6.70;;;2.97;;
70547;SDS011;58099;43.406;3.698;2022-12-18T07:23:28;7.07;;;2.55;;
70547;SDS011;58099;43.406;3.698;2022-12-18T07:25:54;7.03;;;2.50;;
70547;SDS011;58099;43.406;3.698;2022-12-18T07:28:20;7.63;;;3.27;;
70547;SDS011;58099;43.406;3.698;2022-12-18T07:30:45;6.55;;;2.63;;
70547;SDS011;58099;43.406;3.698;2022-12-18T07:33:11;5.73;;;2.30;;
70547;SDS011;58099;43.406;3.698;2022-12-18T07:35:37;6.82;;;2.55;;
70547;SDS011;58099;43.406;3.698;2022-12-18T07:38:02;4.93;;;1.80;;
70547;SDS011;58099;43.406;3.698;2022-12-18T07:40:28;6.20;;;2.20;;
70547;SDS011;58099;43.406;3.698;2022-12-18T07:42:54;6.88;;;2.50;;
70547;SDS011;58099;43.406;3.698;2022-12-18T07:45:19;5.83;;;2.50;;
70547;SDS011;58099;43.406;3.698;2022-12-18T07:47:45;6.22;;;2.25;;
70547;SDS011;58099;43.406;3.698;2022-12-18T07:50:11;7.23;;;2.50;;
70547;SDS011;58099;43.406;3.698;2022-12-18T07:52:38;6.00;;;2.30;;
70547;SDS011;58099;43.406;3.698;2022-12-18T07:55:03;7.23;;;2.27;;
70547;SDS011;58099;43.406;3.698;2022-12-18T07:57:29;7.63;;;2.55;;
70547;SDS011;58099;43.406;3.698;2022-12-18T07:59:55;6.60;;;2.95;;
70547;SDS011;58099;43.406;3.698;2022-12-18T08:02:21;7.05;;;2.90;;
70547;SDS011;58099;43.406;3.698;2022-12-18T08:04:47;6.13;;;2.30;;
70547;SDS011;58099;43.406;3.698;2022-12-18T08:07:13;5.75;;;2.40;;
70547;SDS011;58099;43.406;3.698;2022-12-18T08:09:39;6.05;;;2.60;;
70547;SDS011;58099;43.406;3.698;2022-12-18T08:12:04;7.03;;;2.50;;
70547;SDS011;58099;43.406;3.698;2022-12-18T08:14:30;6.20;;;2.40;;
70547;SDS011;58099;43.406;3.698;2022-12-18T08:16:56;8.07;;;2.60;;
70547;SDS011;58099;43.406;3.698;2022-12-18T08:19:22;5.30;;;1.95;;
70547;SDS011;58099;43.406;3.698;2022-12-18T08:21:48;7.07;;;2.60;;
70547;SDS011;58099;43.406;3.698;2022-12-18T08:24:14;6.45;;;2.55;;
70547;SDS011;58099;43.406;3.698;2022-12-18T08:26:39;6.57;;;2.40;;
70547;SDS011;58099;43.406;3.698;2022-12-18T08:29:05;6.63;;;2.20;;
70547;SDS011;58099;43.406;3.698;2022-12-18T08:31:31;5.30;;;1.90;;
70547;SDS011;58099;43.406;3.698;2022-12-18T08:33:57;6.20;;;2.20;;
70547;SDS011;58099;43.406;3.698;2022-12-18T08:36:23;5.65;;;2.28;;
70547;SDS011;58099;43.406;3.698;2022-12-18T08:38:50;7.45;;;1.95;;
70547;SDS011;58099;43.406;3.698;2022-12-18T08:41:16;5.15;;;2.17;;
70547;SDS011;58099;43.406;3.698;2022-12-18T08:43:43;6.53;;;2.50;;
70547;SDS011;58099;43.406;3.698;2022-12-18T08:46:30;5.93;;;2.20;;
70547;SDS011;58099;43.406;3.698;2022-12-18T08:49:01;5.83;;;2.50;;
70547;SDS011;58099;43.406;3.698;2022-12-18T08:51:28;6.18;;;2.28;;
70547;SDS011;58099;43.406;3.698;2022-12-18T08:53:53;6.45;;;2.05;;
70547;SDS011;58099;43.406;3.698;2022-12-18T08:56:19;6.43;;;2.27;;
70547;SDS011;58099;43.406;3.698;2022-12-18T08:58:45;7.80;;;2.30;;
70547;SDS011;58099;43.406;3.698;2022-12-18T09:01:12;7.20;;;2.70;;
70547;SDS011;58099;43.406;3.698;2022-12-18T09:03:38;5.30;;;1.90;;
70547;SDS011;58099;43.406;3.698;2022-12-18T09:06:04;7.43;;;2.50;;
70547;SDS011;58099;43.406;3.698;2022-12-18T09:08:30;5.95;;;2.70;;
70547;SDS011;58099;43.406;3.698;2022-12-18T09:10:56;6.77;;;2.80;;
70547;SDS011;58099;43.406;3.698;2022-12-18T09:13:22;7.10;;;2.83;;
70547;SDS011;58099;43.406;3.698;2022-12-18T09:15:49;6.27;;;2.70;;
70547;SDS011;58099;43.406;3.698;2022-12-18T09:18:16;7.05;;;2.95;;
70547;SDS011;58099;43.406;3.698;2022-12-18T09:20:44;8.32;;;3.10;;
70547;SDS011;58099;43.406;3.698;2022-12-18T09:23:10;7.78;;;3.25;;
70547;SDS011;58099;43.406;3.698;2022-12-18T09:25:36;7.80;;;3.72;;
70547;SDS011;58099;43.406;3.698;2022-12-18T09:28:03;8.73;;;3.73;;
70547;SDS011;58099;43.406;3.698;2022-12-18T09:30:44;11.07;;;3.30;;
70547;SDS011;58099;43.406;3.698;2022-12-18T09:33:11;6.70;;;3.03;;
70547;SDS011;58099;43.406;3.698;2022-12-18T09:35:38;9.07;;;3.95;;
70547;SDS011;58099;43.406;3.698;2022-12-18T09:38:05;9.40;;;4.17;;
70547;SDS011;58099;43.406;3.698;2022-12-18T09:40:39;8.45;;;3.63;;
70547;SDS011;58099;43.406;3.698;2022-12-18T09:43:35;8.95;;;3.92;;
70547;SDS011;58099;43.406;3.698;2022-12-18T09:46:06;8.73;;;3.88;;
70547;SDS011;58099;43.406;3.698;2022-12-18T09:48:36;7.38;;;3.58;;
70547;SDS011;58099;43.406;3.698;2022-12-18T09:51:11;8.67;;;3.83;;
70547;SDS011;58099;43.406;3.698;2022-12-18T09:53:44;7.78;;;3.90;;
70547;SDS011;58099;43.406;3.698;2022-12-18T09:56:16;9.68;;;4.13;;
70547;SDS011;58099;43.406;3.698;2022-12-18T09:58:49;9.23;;;4.13;;
70547;SDS011;58099;43.406;3.698;2022-12-18T10:01:26;8.98;;;4.10;;
70547;SDS011;58099;43.406;3.698;2022-12-18T10:03:53;8.53;;;3.80;;
70547;SDS011;58099;43.406;3.698;2022-12-18T10:09:11;9.45;;;4.22;;
70547;SDS011;58099;43.406;3.698;2022-12-18T10:25:34;9.18;;;4.40;;
70547;SDS011;58099;43.406;3.698;2022-12-18T10:28:07;7.80;;;3.70;;
70547;SDS011;58099;43.406;3.698;2022-12-18T10:30:37;9.45;;;4.65;;
70547;SDS011;58099;43.406;3.698;2022-12-18T10:33:05;11.43;;;4.35;;
70547;SDS011;58099;43.406;3.698;2022-12-18T10:35:35;8.82;;;4.25;;
70547;SDS011;58099;43.406;3.698;2022-12-18T10:38:06;9.55;;;4.60;;
70547;SDS011;58099;43.406;3.698;2022-12-18T10:40:54;8.37;;;4.23;;
70547;SDS011;58099;43.406;3.698;2022-12-18T10:43:23;10.30;;;4.50;;
70547;SDS011;58099;43.406;3.698;2022-12-18T10:48:26;9.52;;;4.00;;
70547;SDS011;58099;43.406;3.698;2022-12-18T10:50:52;9.50;;;4.65;;
70547;SDS011;58099;43.406;3.698;2022-12-18T10:53:20;9.87;;;4.33;;
70547;SDS011;58099;43.406;3.698;2022-12-18T10:55:50;9.77;;;4.40;;
70547;SDS011;58099;43.406;3.698;2022-12-18T10:58:25;10.00;;;4.05;;
70547;SDS011;58099;43.406;3.698;2022-12-18T11:01:17;8.88;;;3.70;;
70547;SDS011;58099;43.406;3.698;2022-12-18T11:06:20;10.90;;;4.13;;
70547;SDS011;58099;43.406;3.698;2022-12-18T11:09:03;9.13;;;4.50;;
70547;SDS011;58099;43.406;3.698;2022-12-18T11:11:31;9.38;;;4.38;;
70547;SDS011;58099;43.406;3.698;2022-12-18T11:13:59;11.25;;;4.30;;
70547;SDS011;58099;43.406;3.698;2022-12-18T11:16:29;11.25;;;4.72;;
70547;SDS011;58099;43.406;3.698;2022-12-18T11:19:17;9.33;;;4.30;;
70547;SDS011;58099;43.406;3.698;2022-12-18T11:21:51;9.23;;;4.32;;
70547;SDS011;58099;43.406;3.698;2022-12-18T11:24:20;9.63;;;4.93;;
70547;SDS011;58099;43.406;3.698;2022-12-18T11:26:52;10.03;;;5.03;;
70547;SDS011;58099;43.406;3.698;2022-12-18T11:29:22;8.90;;;4.60;;
70547;SDS011;58099;43.406;3.698;2022-12-18T11:32:20;10.25;;;5.13;;
70547;SDS011;58099;43.406;3.698;2022-12-18T11:35:30;10.23;;;5.50;;
70547;SDS011;58099;43.406;3.698;2022-12-18T11:38:10;9.97;;;4.73;;
70547;SDS011;58099;43.406;3.698;2022-12-18T11:41:13;9.02;;;4.78;;
70547;SDS011;58099;43.406;3.698;2022-12-18T11:43:53;9.93;;;4.80;;
70547;SDS011;58099;43.406;3.698;2022-12-18T11:46:30;9.75;;;4.22;;
70547;SDS011;58099;43.406;3.698;2022-12-18T11:51:47;10.10;;;4.67;;
70547;SDS011;58099;43.406;3.698;2022-12-18T11:54:16;8.82;;;4.60;;
70547;SDS011;58099;43.406;3.698;2022-12-18T11:56:48;10.73;;;4.95;;
70547;SDS011;58099;43.406;3.698;2022-12-18T11:59:25;11.40;;;4.60;;
70547;SDS011;58099;43.406;3.698;2022-12-18T12:02:16;10.10;;;4.97;;
70547;SDS011;58099;43.406;3.698;2022-12-18T12:07:38;11.55;;;5.00;;
70547;SDS011;58099;43.406;3.698;2022-12-18T12:10:19;8.60;;;4.68;;
70547;SDS011;58099;43.406;3.698;2022-12-18T12:21:42;12.00;;;5.35;;
70547;SDS011;58099;43.406;3.698;2022-12-18T12:29:43;10.40;;;5.27;;
70547;SDS011;58099;43.406;3.698;2022-12-18T12:41:06;11.38;;;5.40;;
70547;SDS011;58099;43.406;3.698;2022-12-18T12:43:52;11.10;;;4.63;;
70547;SDS011;58099;43.406;3.698;2022-12-18T12:46:23;9.88;;;4.88;;
70547;SDS011;58099;43.406;3.698;2022-12-18T12:54:02;11.20;;;5.88;;
70547;SDS011;58099;43.406;3.698;2022-12-18T13:02:31;11.25;;;5.15;;
70547;SDS011;58099;43.406;3.698;2022-12-18T13:07:50;10.82;;;5.05;;
70547;SDS011;58099;43.406;3.698;2022-12-18T13:20:39;11.20;;;6.30;;
70547;SDS011;58099;43.406;3.698;2022-12-18T13:25:48;10.73;;;6.05;;
70547;SDS011;58099;43.406;3.698;2022-12-18T13:28:20;10.18;;;5.72;;
70547;SDS011;58099;43.406;3.698;2022-12-18T13:30:51;11.30;;;6.33;;
70547;SDS011;58099;43.406;3.698;2022-12-18T13:35:53;12.95;;;6.47;;
70547;SDS011;58099;43.406;3.698;2022-12-18T13:40:59;11.95;;;6.85;;
70547;SDS011;58099;43.406;3.698;2022-12-18T13:43:28;11.32;;;6.15;;
70547;SDS011;58099;43.406;3.698;2022-12-18T13:46:40;13.57;;;6.40;;
70547;SDS011;58099;43.406;3.698;2022-12-18T13:48:50;12.52;;;5.85;;
70547;SDS011;58099;43.406;3.698;2022-12-18T13:51:22;12.87;;;6.03;;
70547;SDS011;58099;43.406;3.698;2022-12-18T13:53:59;12.02;;;6.43;;
70547;SDS011;58099;43.406;3.698;2022-12-18T13:56:28;13.07;;;6.68;;
70547;SDS011;58099;43.406;3.698;2022-12-18T14:01:57;10.35;;;6.07;;
70547;SDS011;58099;43.406;3.698;2022-12-18T14:07:04;11.82;;;5.95;;
70547;SDS011;58099;43.406;3.698;2022-12-18T14:09:52;12.85;;;6.22;;
70547;SDS011;58099;43.406;3.698;2022-12-18T14:12:25;12.10;;;6.07;;
70547;SDS011;58099;43.406;3.698;2022-12-18T14:17:55;11.10;;;5.33;;
70547;SDS011;58099;43.406;3.698;2022-12-18T14:20:29;13.07;;;7.07;;
70547;SDS011;58099;43.406;3.698;2022-12-18T14:22:57;12.57;;;6.63;;
70547;SDS011;58099;43.406;3.698;2022-12-18T14:25:26;14.02;;;6.85;;
70547;SDS011;58099;43.406;3.698;2022-12-18T14:28:00;13.18;;;7.15;;
70547;SDS011;58099;43.406;3.698;2022-12-18T14:30:37;14.03;;;7.10;;
70547;SDS011;58099;43.406;3.698;2022-12-18T14:35:34;13.65;;;6.63;;
70547;SDS011;58099;43.406;3.698;2022-12-18T14:40:42;14.85;;;7.03;;
70547;SDS011;58099;43.406;3.698;2022-12-18T14:43:10;13.30;;;7.23;;
70547;SDS011;58099;43.406;3.698;2022-12-18T14:45:45;13.20;;;6.47;;
70547;SDS011;58099;43.406;3.698;2022-12-18T14:50:40;14.27;;;7.20;;
70547;SDS011;58099;43.406;3.698;2022-12-18T14:53:06;11.00;;;5.72;;
70547;SDS011;58099;43.406;3.698;2022-12-18T14:55:46;13.50;;;6.80;;
70547;SDS011;58099;43.406;3.698;2022-12-18T14:58:13;13.60;;;7.32;;
70547;SDS011;58099;43.406;3.698;2022-12-18T15:00:42;13.93;;;6.93;;
70547;SDS011;58099;43.406;3.698;2022-12-18T15:03:08;12.25;;;6.53;;
70547;SDS011;58099;43.406;3.698;2022-12-18T15:05:35;15.38;;;8.00;;
70547;SDS011;58099;43.406;3.698;2022-12-18T15:08:01;21.13;;;10.43;;
70547;SDS011;58099;43.406;3.698;2022-12-18T15:10:31;13.93;;;7.07;;
70547;SDS011;58099;43.406;3.698;2022-12-18T15:15:46;11.88;;;5.93;;
70547;SDS011;58099;43.406;3.698;2022-12-18T15:18:15;12.75;;;5.57;;
70547;SDS011;58099;43.406;3.698;2022-12-18T15:20:56;11.77;;;5.53;;
70547;SDS011;58099;43.406;3.698;2022-12-18T15:28:34;13.77;;;5.93;;
70547;SDS011;58099;43.406;3.698;2022-12-18T15:33:39;11.73;;;5.60;;
70547;SDS011;58099;43.406;3.698;2022-12-18T15:36:12;10.45;;;4.20;;
70547;SDS011;58099;43.406;3.698;2022-12-18T15:38:39;9.13;;;2.60;;
70547;SDS011;58099;43.406;3.698;2022-12-18T15:41:05;6.90;;;1.55;;
70547;SDS011;58099;43.406;3.698;2022-12-18T15:43:42;6.45;;;1.58;;
70547;SDS011;58099;43.406;3.698;2022-12-18T15:46:17;7.33;;;2.03;;
70547;SDS011;58099;43.406;3.698;2022-12-18T15:48:48;11.20;;;2.35;;
70547;SDS011;58099;43.406;3.698;2022-12-18T15:51:19;8.30;;;2.20;;
70547;SDS011;58099;43.406;3.698;2022-12-18T15:53:45;8.98;;;1.98;;
70547;SDS011;58099;43.406;3.698;2022-12-18T15:56:13;6.97;;;1.65;;
70547;SDS011;58099;43.406;3.698;2022-12-18T15:59:04;5.13;;;1.10;;
70547;SDS011;58099;43.406;3.698;2022-12-18T16:01:38;7.70;;;2.10;;
70547;SDS011;58099;43.406;3.698;2022-12-18T16:04:04;9.90;;;1.73;;
70547;SDS011;58099;43.406;3.698;2022-12-18T16:06:30;6.40;;;1.80;;
70547;SDS011;58099;43.406;3.698;2022-12-18T16:08:57;7.30;;;1.47;;
70547;SDS011;58099;43.406;3.698;2022-12-18T16:11:27;9.15;;;2.17;;
70547;SDS011;58099;43.406;3.698;2022-12-18T16:16:47;4.37;;;1.20;;
70547;SDS011;58099;43.406;3.698;2022-12-18T16:19:14;7.43;;;1.83;;
70547;SDS011;58099;43.406;3.698;2022-12-18T16:21:41;7.10;;;1.45;;
70547;SDS011;58099;43.406;3.698;2022-12-18T16:24:17;8.35;;;1.65;;
70547;SDS011;58099;43.406;3.698;2022-12-18T16:26:46;8.20;;;1.90;;
70547;SDS011;58099;43.406;3.698;2022-12-18T16:29:12;7.23;;;1.30;;
70547;SDS011;58099;43.406;3.698;2022-12-18T16:31:39;8.23;;;1.65;;
70547;SDS011;58099;43.406;3.698;2022-12-18T16:36:50;8.60;;;1.50;;
70547;SDS011;58099;43.406;3.698;2022-12-18T16:39:16;9.25;;;1.65;;
70547;SDS011;58099;43.406;3.698;2022-12-18T16:41:42;7.90;;;1.43;;
70547;SDS011;58099;43.406;3.698;2022-12-18T16:44:08;9.73;;;1.60;;
70547;SDS011;58099;43.406;3.698;2022-12-18T16:46:35;11.40;;;1.90;;
70547;SDS011;58099;43.406;3.698;2022-12-18T16:49:01;7.80;;;1.50;;
70547;SDS011;58099;43.406;3.698;2022-12-18T16:51:27;7.90;;;1.30;;
70547;SDS011;58099;43.406;3.698;2022-12-18T16:53:54;8.00;;;1.47;;
70547;SDS011;58099;43.406;3.698;2022-12-18T16:56:21;8.73;;;1.45;;
70547;SDS011;58099;43.406;3.698;2022-12-18T16:58:50;10.45;;;1.77;;
70547;SDS011;58099;43.406;3.698;2022-12-18T17:01:17;10.10;;;1.73;;
70547;SDS011;58099;43.406;3.698;2022-12-18T17:03:43;6.25;;;1.20;;
70547;SDS011;58099;43.406;3.698;2022-12-18T17:06:08;6.38;;;1.60;;
70547;SDS011;58099;43.406;3.698;2022-12-18T17:08:34;7.20;;;1.40;;
70547;SDS011;58099;43.406;3.698;2022-12-18T17:11:04;9.13;;;2.17;;
70547;SDS011;58099;43.406;3.698;2022-12-18T17:13:31;6.70;;;1.40;;
70547;SDS011;58099;43.406;3.698;2022-12-18T17:16:06;5.75;;;1.75;;
70547;SDS011;58099;43.406;3.698;2022-12-18T17:18:32;9.30;;;1.20;;
70547;SDS011;58099;43.406;3.698;2022-12-18T17:21:02;5.03;;;1.30;;
70547;SDS011;58099;43.406;3.698;2022-12-18T17:23:29;7.78;;;1.33;;
70547;SDS011;58099;43.406;3.698;2022-12-18T17:25:58;5.75;;;1.52;;
70547;SDS011;58099;43.406;3.698;2022-12-18T17:28:24;7.45;;;1.90;;
70547;SDS011;58099;43.406;3.698;2022-12-18T17:30:51;8.02;;;1.20;;
70547;SDS011;58099;43.406;3.698;2022-12-18T17:33:18;8.67;;;2.10;;
70547;SDS011;58099;43.406;3.698;2022-12-18T17:35:43;7.43;;;1.85;;
70547;SDS011;58099;43.406;3.698;2022-12-18T17:38:09;6.72;;;1.90;;
70547;SDS011;58099;43.406;3.698;2022-12-18T17:40:35;7.17;;;1.50;;
70547;SDS011;58099;43.406;3.698;2022-12-18T17:43:01;5.95;;;1.42;;
70547;SDS011;58099;43.406;3.698;2022-12-18T17:45:27;6.38;;;1.33;;
70547;SDS011;58099;43.406;3.698;2022-12-18T17:47:53;8.03;;;1.70;;
70547;SDS011;58099;43.406;3.698;2022-12-18T17:50:18;7.33;;;1.70;;
70547;SDS011;58099;43.406;3.698;2022-12-18T17:52:44;10.15;;;1.80;;
70547;SDS011;58099;43.406;3.698;2022-12-18T17:55:10;9.55;;;1.65;;
70547;SDS011;58099;43.406;3.698;2022-12-18T17:57:36;6.93;;;1.50;;
70547;SDS011;58099;43.406;3.698;2022-12-18T18:00:03;5.05;;;1.60;;
70547;SDS011;58099;43.406;3.698;2022-12-18T18:02:29;11.23;;;1.75;;
70547;SDS011;58099;43.406;3.698;2022-12-18T18:04:56;6.50;;;1.57;;
70547;SDS011;58099;43.406;3.698;2022-12-18T18:07:21;6.03;;;1.52;;
70547;SDS011;58099;43.406;3.698;2022-12-18T18:09:47;7.47;;;1.70;;
70547;SDS011;58099;43.406;3.698;2022-12-18T18:12:16;8.73;;;2.20;;
70547;SDS011;58099;43.406;3.698;2022-12-18T18:15:04;9.60;;;1.23;;
70547;SDS011;58099;43.406;3.698;2022-12-18T18:17:30;6.50;;;1.77;;
70547;SDS011;58099;43.406;3.698;2022-12-18T18:19:56;7.05;;;1.65;;
70547;SDS011;58099;43.406;3.698;2022-12-18T18:22:21;8.37;;;1.70;;
70547;SDS011;58099;43.406;3.698;2022-12-18T18:24:47;8.13;;;1.30;;
70547;SDS011;58099;43.406;3.698;2022-12-18T18:27:13;10.18;;;2.25;;
70547;SDS011;58099;43.406;3.698;2022-12-18T18:29:39;7.35;;;1.30;;
70547;SDS011;58099;43.406;3.698;2022-12-18T18:32:05;7.17;;;2.03;;
70547;SDS011;58099;43.406;3.698;2022-12-18T18:34:31;8.40;;;1.63;;
70547;SDS011;58099;43.406;3.698;2022-12-18T18:36:57;9.20;;;1.85;;
70547;SDS011;58099;43.406;3.698;2022-12-18T18:39:23;8.45;;;1.20;;
70547;SDS011;58099;43.406;3.698;2022-12-18T18:41:53;9.33;;;1.73;;
70547;SDS011;58099;43.406;3.698;2022-12-18T18:44:19;6.43;;;1.23;;
70547;SDS011;58099;43.406;3.698;2022-12-18T18:46:46;6.72;;;1.70;;
70547;SDS011;58099;43.406;3.698;2022-12-18T18:49:12;6.28;;;1.30;;
70547;SDS011;58099;43.406;3.698;2022-12-18T18:51:38;6.60;;;1.60;;
70547;SDS011;58099;43.406;3.698;2022-12-18T18:54:07;5.82;;;1.40;;
70547;SDS011;58099;43.406;3.698;2022-12-18T18:56:33;5.82;;;1.75;;
70547;SDS011;58099;43.406;3.698;2022-12-18T18:58:59;7.82;;;1.60;;
70547;SDS011;58099;43.406;3.698;2022-12-18T19:01:25;10.53;;;1.80;;
70547;SDS011;58099;43.406;3.698;2022-12-18T19:03:51;8.75;;;1.60;;
70547;SDS011;58099;43.406;3.698;2022-12-18T19:06:19;12.52;;;2.42;;
70547;SDS011;58099;43.406;3.698;2022-12-18T19:08:50;9.43;;;1.30;;
70547;SDS011;58099;43.406;3.698;2022-12-18T19:11:17;11.93;;;2.22;;
70547;SDS011;58099;43.406;3.698;2022-12-18T19:14:03;6.40;;;1.67;;
70547;SDS011;58099;43.406;3.698;2022-12-18T19:16:30;6.97;;;1.70;;
70547;SDS011;58099;43.406;3.698;2022-12-18T19:18:57;6.97;;;2.00;;
70547;SDS011;58099;43.406;3.698;2022-12-18T19:21:23;6.30;;;1.47;;
70547;SDS011;58099;43.406;3.698;2022-12-18T19:23:49;8.10;;;2.45;;
70547;SDS011;58099;43.406;3.698;2022-12-18T19:26:18;8.43;;;2.33;;
70547;SDS011;58099;43.406;3.698;2022-12-18T19:28:45;8.53;;;1.87;;
70547;SDS011;58099;43.406;3.698;2022-12-18T19:31:12;6.60;;;1.50;;
70547;SDS011;58099;43.406;3.698;2022-12-18T19:33:40;8.18;;;1.73;;
70547;SDS011;58099;43.406;3.698;2022-12-18T19:38:47;9.68;;;2.28;;
70547;SDS011;58099;43.406;3.698;2022-12-18T19:41:15;7.53;;;1.70;;
70547;SDS011;58099;43.406;3.698;2022-12-18T19:43:42;5.70;;;1.50;;
70547;SDS011;58099;43.406;3.698;2022-12-18T19:46:10;7.28;;;1.60;;
70547;SDS011;58099;43.406;3.698;2022-12-18T19:48:38;9.75;;;1.70;;
70547;SDS011;58099;43.406;3.698;2022-12-18T19:51:05;8.18;;;1.40;;
70547;SDS011;58099;43.406;3.698;2022-12-18T19:53:50;7.53;;;1.43;;
70547;SDS011;58099;43.406;3.698;2022-12-18T19:56:17;9.05;;;2.17;;
70547;SDS011;58099;43.406;3.698;2022-12-18T19:58:44;7.40;;;1.45;;
70547;SDS011;58099;43.406;3.698;2022-12-18T20:01:14;5.63;;;1.65;;
70547;SDS011;58099;43.406;3.698;2022-12-18T20:03:41;11.40;;;1.53;;
70547;SDS011;58099;43.406;3.698;2022-12-18T20:06:18;6.63;;;1.55;;
70547;SDS011;58099;43.406;3.698;2022-12-18T20:08:52;8.90;;;1.20;;
70547;SDS011;58099;43.406;3.698;2022-12-18T20:11:19;5.60;;;1.27;;
70547;SDS011;58099;43.406;3.698;2022-12-18T20:13:45;7.20;;;1.47;;
70547;SDS011;58099;43.406;3.698;2022-12-18T20:16:11;9.05;;;1.48;;
70547;SDS011;58099;43.406;3.698;2022-12-18T20:18:37;9.13;;;1.90;;
70547;SDS011;58099;43.406;3.698;2022-12-18T20:21:03;8.93;;;1.90;;
70547;SDS011;58099;43.406;3.698;2022-12-18T20:23:29;8.83;;;2.00;;
70547;SDS011;58099;43.406;3.698;2022-12-18T20:25:55;8.13;;;2.58;;
70547;SDS011;58099;43.406;3.698;2022-12-18T20:28:21;9.55;;;2.13;;
70547;SDS011;58099;43.406;3.698;2022-12-18T20:30:48;8.18;;;1.73;;
70547;SDS011;58099;43.406;3.698;2022-12-18T20:33:22;6.45;;;2.58;;
70547;SDS011;58099;43.406;3.698;2022-12-18T20:35:48;6.57;;;1.45;;
70547;SDS011;58099;43.406;3.698;2022-12-18T20:38:13;7.05;;;1.40;;
70547;SDS011;58099;43.406;3.698;2022-12-18T20:40:40;8.83;;;2.67;;
70547;SDS011;58099;43.406;3.698;2022-12-18T20:43:06;8.60;;;1.58;;
70547;SDS011;58099;43.406;3.698;2022-12-18T20:45:32;7.95;;;1.92;;
70547;SDS011;58099;43.406;3.698;2022-12-18T20:47:58;8.20;;;2.17;;
70547;SDS011;58099;43.406;3.698;2022-12-18T20:50:25;9.90;;;1.80;;
70547;SDS011;58099;43.406;3.698;2022-12-18T20:52:51;9.20;;;1.55;;
70547;SDS011;58099;43.406;3.698;2022-12-18T20:55:17;10.70;;;2.38;;
70547;SDS011;58099;43.406;3.698;2022-12-18T20:57:43;9.40;;;1.93;;
70547;SDS011;58099;43.406;3.698;2022-12-18T21:00:09;6.93;;;1.40;;
70547;SDS011;58099;43.406;3.698;2022-12-18T21:02:36;9.55;;;1.50;;
70547;SDS011;58099;43.406;3.698;2022-12-18T21:05:02;11.77;;;1.47;;
70547;SDS011;58099;43.406;3.698;2022-12-18T21:07:28;10.02;;;1.80;;
70547;SDS011;58099;43.406;3.698;2022-12-18T21:09:54;8.50;;;1.73;;
70547;SDS011;58099;43.406;3.698;2022-12-18T21:12:19;8.50;;;2.30;;
70547;SDS011;58099;43.406;3.698;2022-12-18T21:15:10;14.20;;;2.47;;
70547;SDS011;58099;43.406;3.698;2022-12-18T21:17:36;6.57;;;1.50;;
70547;SDS011;58099;43.406;3.698;2022-12-18T21:20:02;7.85;;;1.60;;
70547;SDS011;58099;43.406;3.698;2022-12-18T21:22:28;8.07;;;1.83;;
70547;SDS011;58099;43.406;3.698;2022-12-18T21:24:54;10.37;;;2.07;;
70547;SDS011;58099;43.406;3.698;2022-12-18T21:27:19;8.80;;;1.50;;
70547;SDS011;58099;43.406;3.698;2022-12-18T21:29:45;8.73;;;2.10;;
70547;SDS011;58099;43.406;3.698;2022-12-18T21:32:11;8.60;;;1.83;;
70547;SDS011;58099;43.406;3.698;2022-12-18T21:34:38;11.20;;;1.38;;
70547;SDS011;58099;43.406;3.698;2022-12-18T21:37:05;9.73;;;1.50;;
70547;SDS011;58099;43.406;3.698;2022-12-18T21:39:31;8.20;;;2.13;;
70547;SDS011;58099;43.406;3.698;2022-12-18T21:41:57;10.77;;;2.10;;
70547;SDS011;58099;43.406;3.698;2022-12-18T21:44:42;10.88;;;1.70;;
70547;SDS011;58099;43.406;3.698;2022-12-18T21:47:09;8.23;;;1.42;;
70547;SDS011;58099;43.406;3.698;2022-12-18T21:49:36;7.87;;;1.50;;
70547;SDS011;58099;43.406;3.698;2022-12-18T21:52:02;11.18;;;1.90;;
70547;SDS011;58099;43.406;3.698;2022-12-18T21:54:28;11.05;;;1.92;;
70547;SDS011;58099;43.406;3.698;2022-12-18T21:59:24;7.95;;;1.42;;
70547;SDS011;58099;43.406;3.698;2022-12-18T22:01:52;9.65;;;1.73;;
70547;SDS011;58099;43.406;3.698;2022-12-18T22:04:19;11.15;;;2.35;;
70547;SDS011;58099;43.406;3.698;2022-12-18T22:06:46;10.18;;;1.75;;
70547;SDS011;58099;43.406;3.698;2022-12-18T22:09:13;7.50;;;1.50;;
70547;SDS011;58099;43.406;3.698;2022-12-18T22:11:40;7.93;;;1.73;;
70547;SDS011;58099;43.406;3.698;2022-12-18T22:14:06;6.07;;;1.40;;
70547;SDS011;58099;43.406;3.698;2022-12-18T22:16:32;9.25;;;1.55;;
70547;SDS011;58099;43.406;3.698;2022-12-18T22:18:58;7.03;;;1.73;;
70547;SDS011;58099;43.406;3.698;2022-12-18T22:24:12;12.10;;;2.47;;
70547;SDS011;58099;43.406;3.698;2022-12-18T22:26:53;11.93;;;1.75;;
70547;SDS011;58099;43.406;3.698;2022-12-18T22:29:19;7.67;;;1.80;;
70547;SDS011;58099;43.406;3.698;2022-12-18T22:32:07;6.97;;;1.50;;
70547;SDS011;58099;43.406;3.698;2022-12-18T22:34:34;10.95;;;2.47;;
70547;SDS011;58099;43.406;3.698;2022-12-18T22:37:01;8.10;;;1.77;;
70547;SDS011;58099;43.406;3.698;2022-12-18T22:39:27;11.73;;;1.60;;
70547;SDS011;58099;43.406;3.698;2022-12-18T22:41:54;7.93;;;1.85;;
70547;SDS011;58099;43.406;3.698;2022-12-18T22:44:20;11.88;;;2.40;;
70547;SDS011;58099;43.406;3.698;2022-12-18T22:46:47;10.13;;;3.13;;
70547;SDS011;58099;43.406;3.698;2022-12-18T22:49:15;9.17;;;2.10;;
70547;SDS011;58099;43.406;3.698;2022-12-18T22:51:42;10.20;;;2.72;;
70547;SDS011;58099;43.406;3.698;2022-12-18T22:54:10;11.00;;;1.67;;
70547;SDS011;58099;43.406;3.698;2022-12-18T22:56:36;11.30;;;1.98;;
70547;SDS011;58099;43.406;3.698;2022-12-18T22:59:02;11.43;;;2.67;;
70547;SDS011;58099;43.406;3.698;2022-12-18T23:01:28;10.00;;;1.88;;
70547;SDS011;58099;43.406;3.698;2022-12-18T23:03:54;10.35;;;1.92;;
70547;SDS011;58099;43.406;3.698;2022-12-18T23:06:21;11.77;;;2.15;;
70547;SDS011;58099;43.406;3.698;2022-12-18T23:08:49;12.65;;;1.92;;
70547;SDS011;58099;43.406;3.698;2022-12-18T23:11:16;10.70;;;2.17;;
70547;SDS011;58099;43.406;3.698;2022-12-18T23:13:42;12.63;;;1.73;;
70547;SDS011;58099;43.406;3.698;2022-12-18T23:16:16;13.30;;;2.53;;
70547;SDS011;58099;43.406;3.698;2022-12-18T23:18:43;7.83;;;1.53;;
70547;SDS011;58099;43.406;3.698;2022-12-18T23:21:14;8.50;;;2.13;;
70547;SDS011;58099;43.406;3.698;2022-12-18T23:23:42;7.82;;;1.70;;
70547;SDS011;58099;43.406;3.698;2022-12-18T23:26:12;8.65;;;1.63;;
70547;SDS011;58099;43.406;3.698;2022-12-18T23:28:40;7.07;;;1.60;;
70547;SDS011;58099;43.406;3.698;2022-12-18T23:33:34;9.40;;;1.83;;